TimePST,TemperatureF,Dew PointF,Humidity,Sea Level PressureIn,VisibilityMPH,Wind Direction,Wind SpeedMPH,Gust SpeedMPH,PrecipitationIn,Events,Conditions,WindDirDegrees,DateUTC
12:53 AM,55.0,33.1,43,30.01,10.0,Calm,Calm,-,N/A,,Clear,0,2012-03-10 08:53:00
1:53 AM,55.0,30.9,40,30.00,10.0,ESE,3.5,-,N/A,,Clear,110,2012-03-10 09:53:00
2:53 AM,54.0,28.0,37,29.98,10.0,East,3.5,-,N/A,,Clear,100,2012-03-10 10:53:00
3:53 AM,54.0,27.0,35,29.98,10.0,Calm,Calm,-,N/A,,Clear,0,2012-03-10 11:53:00
4:53 AM,52.0,30.9,45,29.98,10.0,Calm,Calm,-,N/A,,Clear,0,2012-03-10 12:53:00
5:53 AM,51.1,28.0,41,29.98,10.0,East,4.6,-,N/A,,Clear,80,2012-03-10 13:53:00
6:53 AM,54.0,28.0,37,29.99,10.0,SSW,3.5,-,N/A,,Clear,210,2012-03-10 14:53:00
7:53 AM,61.0,28.9,30,30.02,10.0,Calm,Calm,-,N/A,,Clear,0,2012-03-10 15:53:00
8:53 AM,66.0,36.0,33,30.02,10.0,South,5.8,-,N/A,,Clear,190,2012-03-10 16:53:00
9:53 AM,69.1,36.0,30,30.02,10.0,SSW,4.6,-,N/A,,Clear,210,2012-03-10 17:53:00
10:53 AM,72.0,37.9,29,30.01,10.0,Variable,3.5,-,N/A,,Clear,0,2012-03-10 18:53:00
11:53 AM,75.0,39.9,28,29.99,10.0,Variable,6.9,-,N/A,,Clear,0,2012-03-10 19:53:00
12:53 PM,75.9,39.0,26,29.97,10.0,Variable,3.5,-,N/A,,Clear,0,2012-03-10 20:53:00
1:53 PM,77.0,37.0,24,29.95,10.0,Variable,5.8,-,N/A,,Clear,0,2012-03-10 21:53:00
2:53 PM,73.9,43.0,33,29.94,10.0,WSW,6.9,-,N/A,,Clear,240,2012-03-10 22:53:00
3:53 PM,70.0,46.0,42,29.95,10.0,SSW,8.1,-,N/A,,Clear,200,2012-03-10 23:53:00
4:53 PM,66.9,48.0,51,29.95,10.0,South,6.9,-,N/A,,Clear,180,2012-03-11 00:53:00
5:53 PM,64.0,48.0,56,29.96,10.0,SSW,5.8,-,N/A,,Clear,210,2012-03-11 01:53:00
6:53 PM,62.1,46.9,58,29.98,10.0,SSW,4.6,-,N/A,,Clear,210,2012-03-11 02:53:00
7:53 PM,60.1,48.9,67,30.00,10.0,SSW,3.5,-,N/A,,Clear,200,2012-03-11 03:53:00
8:53 PM,59.0,50.0,72,30.02,10.0,South,3.5,-,N/A,,Clear,180,2012-03-11 04:53:00
9:53 PM,57.9,51.1,78,30.02,8.0,South,4.6,-,N/A,,Clear,180,2012-03-11 05:53:00
10:53 PM,57.0,51.1,81,30.02,8.0,Calm,Calm,-,N/A,,Clear,0,2012-03-11 06:53:00
11:51 PM,57.2,48.2,72,30.02,10.0,ESE,5.8,-,N/A,,Mostly Cloudy,120,2012-03-11 07:51:00
11:53 PM,57.0,48.9,74,30.02,10.0,ESE,6.9,-,N/A,,Mostly Cloudy,120,2012-03-11 07:53:00